createdAt,value
2024-03-11T00:00:02.040Z,14.97
2024-03-11T00:02:28.969Z,14.20
2024-03-11T00:04:56.006Z,14.57
2024-03-11T00:07:22.821Z,15.77
2024-03-11T00:09:49.974Z,15.33
2024-03-11T00:12:18.829Z,15.93
2024-03-11T00:14:48.783Z,16.87
2024-03-11T00:17:16.210Z,16.17
2024-03-11T00:19:43.003Z,15.63
2024-03-11T00:22:09.797Z,13.90
2024-03-11T00:24:36.691Z,15.00
2024-03-11T00:27:08.970Z,15.80
2024-03-11T00:29:36.371Z,16.53
2024-03-11T00:32:09.245Z,15.80
2024-03-11T00:34:36.080Z,15.27
2024-03-11T00:37:03.694Z,14.67
2024-03-11T00:39:31.803Z,16.47
2024-03-11T00:41:58.555Z,13.97
2024-03-11T00:44:25.347Z,15.10
2024-03-11T00:46:52.155Z,13.90
2024-03-11T00:49:20.879Z,14.27
2024-03-11T00:51:47.756Z,13.73
2024-03-11T00:54:14.830Z,13.30
2024-03-11T00:56:41.601Z,16.17
2024-03-11T00:59:08.352Z,15.20
2024-03-11T01:01:35.109Z,15.97
2024-03-11T01:04:01.786Z,16.20
2024-03-11T01:06:28.676Z,14.40
2024-03-11T01:08:56.142Z,16.13
2024-03-11T01:11:24.455Z,15.50
2024-03-11T01:13:51.260Z,15.83
2024-03-11T01:16:18.059Z,15.43
2024-03-11T01:18:48.905Z,15.57
2024-03-11T01:21:15.531Z,16.00
2024-03-11T01:23:42.169Z,14.87
2024-03-11T01:26:08.935Z,15.97
2024-03-11T01:28:36.951Z,14.43
2024-03-11T01:31:05.609Z,15.47
2024-03-11T01:33:32.312Z,15.60
2024-03-11T01:36:00.539Z,15.37
2024-03-11T01:38:29.992Z,15.37
2024-03-11T01:40:57.765Z,16.27
2024-03-11T01:43:26.319Z,15.67
2024-03-11T01:45:54.694Z,14.87
2024-03-11T01:48:21.632Z,15.10
2024-03-11T01:50:49.395Z,14.20
2024-03-11T01:53:16.761Z,14.17
2024-03-11T01:55:44.804Z,12.37
2024-03-11T01:58:12.236Z,14.67
2024-03-11T02:00:38.952Z,14.37
2024-03-11T02:03:07.698Z,14.50
2024-03-11T02:05:41.780Z,13.30
2024-03-11T02:08:09.021Z,13.30
2024-03-11T02:10:35.868Z,13.17
2024-03-11T02:13:02.912Z,12.53
2024-03-11T02:15:30.313Z,14.17
2024-03-11T02:17:57.575Z,14.40
2024-03-11T02:20:24.538Z,12.83
2024-03-11T02:22:55.998Z,13.20
2024-03-11T02:25:30.565Z,13.37
2024-03-11T02:27:59.500Z,13.37
2024-03-11T02:30:26.549Z,15.63
2024-03-11T02:32:53.586Z,16.03
2024-03-11T02:35:21.430Z,12.10
2024-03-11T02:37:49.915Z,11.93
2024-03-11T02:40:19.979Z,12.13
2024-03-11T02:42:47.388Z,12.63
2024-03-11T02:45:16.482Z,11.77
2024-03-11T02:47:44.448Z,12.20
2024-03-11T02:50:11.949Z,12.67
2024-03-11T02:52:38.809Z,12.43
2024-03-11T02:55:07.322Z,14.97
2024-03-11T02:57:34.337Z,13.77
2024-03-11T03:00:01.447Z,12.63
2024-03-11T03:02:28.798Z,12.97
2024-03-11T03:04:57.396Z,14.13
2024-03-11T03:07:27.162Z,13.37
2024-03-11T03:09:54.687Z,14.53
2024-03-11T03:12:22.052Z,12.83
2024-03-11T03:14:49.051Z,14.03
2024-03-11T03:17:16.057Z,13.73
2024-03-11T03:19:42.821Z,13.27
2024-03-11T03:22:09.551Z,13.47
2024-03-11T03:24:36.368Z,13.77
2024-03-11T03:27:03.128Z,14.00
2024-03-11T03:29:31.768Z,12.53
2024-03-11T03:31:59.171Z,12.73
2024-03-11T03:34:26.008Z,14.43
2024-03-11T03:36:52.804Z,13.87
2024-03-11T03:39:19.606Z,13.37
2024-03-11T03:41:46.558Z,13.70
2024-03-11T03:44:13.728Z,12.57
2024-03-11T03:46:42.321Z,12.67
2024-03-11T03:49:09.091Z,13.23
2024-03-11T03:51:35.854Z,13.17
2024-03-11T03:54:02.666Z,12.97
2024-03-11T03:56:30.667Z,13.20
2024-03-11T03:58:57.783Z,12.63
2024-03-11T04:01:24.896Z,14.57
2024-03-11T04:03:51.868Z,23.80
2024-03-11T04:06:18.635Z,20.87
2024-03-11T04:08:45.802Z,15.50
2024-03-11T04:11:12.845Z,12.73
2024-03-11T04:13:41.164Z,10.90
2024-03-11T04:16:08.535Z,11.17
2024-03-11T04:18:35.534Z,10.00
2024-03-11T04:21:02.991Z,11.47
2024-03-11T04:23:30.378Z,10.57
2024-03-11T04:25:58.168Z,10.57
2024-03-11T04:28:28.836Z,9.93
2024-03-11T04:30:56.711Z,9.13
2024-03-11T04:33:23.700Z,9.10
2024-03-11T04:35:50.783Z,8.83
2024-03-11T04:38:19.378Z,9.00
2024-03-11T04:40:46.307Z,7.97
2024-03-11T04:43:13.001Z,8.57
2024-03-11T04:45:40.172Z,8.33
2024-03-11T04:48:08.627Z,8.27
2024-03-11T04:50:39.528Z,8.10
2024-03-11T04:53:08.584Z,7.83
2024-03-11T04:55:36.107Z,9.50
2024-03-11T04:58:02.850Z,9.53
2024-03-11T05:00:31.580Z,8.60
2024-03-11T05:03:00.330Z,7.43
2024-03-11T05:05:28.675Z,8.43
2024-03-11T05:07:56.590Z,8.27
2024-03-11T05:10:23.430Z,7.87
2024-03-11T05:12:50.985Z,7.83
2024-03-11T05:15:21.063Z,6.93
2024-03-11T05:17:48.190Z,8.27
2024-03-11T05:20:19.542Z,7.80
2024-03-11T05:22:47.880Z,7.77
2024-03-11T05:25:19.389Z,8.90
2024-03-11T05:27:48.434Z,10.87
2024-03-11T05:30:16.731Z,9.80
2024-03-11T05:32:43.737Z,9.47
2024-03-11T05:35:10.827Z,9.97
2024-03-11T05:37:37.762Z,9.27
2024-03-11T05:40:07.941Z,11.83
2024-03-11T05:42:35.600Z,10.03
2024-03-11T05:45:03.302Z,9.37
2024-03-11T05:47:30.057Z,9.77
2024-03-11T05:49:56.706Z,10.60
2024-03-11T05:52:26.659Z,11.00
2024-03-11T05:54:54.916Z,11.60
2024-03-11T05:57:31.168Z,10.27
2024-03-11T05:59:58.213Z,9.70
2024-03-11T06:02:25.068Z,9.27
2024-03-11T06:04:51.853Z,9.57
2024-03-11T06:07:25.329Z,9.10
2024-03-11T06:09:53.301Z,10.27
2024-03-11T06:12:21.648Z,10.37
2024-03-11T06:14:49.721Z,8.80
2024-03-11T06:17:17.808Z,10.13
2024-03-11T06:19:46.043Z,8.30
2024-03-11T06:22:13.604Z,9.13
2024-03-11T06:24:40.449Z,9.80
2024-03-11T06:27:07.434Z,9.60
2024-03-11T06:29:35.260Z,10.53
2024-03-11T06:32:07.068Z,12.20
2024-03-11T06:34:36.087Z,12.00
2024-03-11T06:37:03.087Z,11.43
2024-03-11T06:39:31.001Z,10.70
2024-03-11T06:41:58.514Z,11.60
2024-03-11T06:44:33.699Z,9.93
2024-03-11T06:47:09.672Z,9.80
2024-03-11T06:49:37.655Z,11.30
2024-03-11T06:52:04.678Z,10.17
2024-03-11T06:54:31.647Z,11.17
2024-03-11T06:56:58.303Z,11.97
2024-03-11T06:59:27.429Z,12.83
2024-03-11T07:01:54.342Z,12.80
2024-03-11T07:04:23.426Z,10.77
2024-03-11T07:06:50.066Z,11.47
2024-03-11T07:09:16.919Z,10.40
2024-03-11T07:11:44.412Z,10.37
2024-03-11T07:14:15.708Z,8.20
2024-03-11T07:16:44.601Z,5.60
2024-03-11T07:19:12.062Z,7.07
2024-03-11T07:21:40.451Z,7.17
2024-03-11T07:24:07.782Z,7.00
2024-03-11T07:26:34.576Z,6.07
2024-03-11T07:29:01.205Z,7.10
2024-03-11T07:31:27.874Z,7.50
2024-03-11T07:33:55.667Z,7.00
2024-03-11T07:36:23.273Z,7.50
2024-03-11T07:38:50.364Z,6.57
2024-03-11T07:41:17.356Z,6.57
2024-03-11T07:43:44.569Z,7.00
2024-03-11T07:46:12.831Z,7.57
2024-03-11T07:48:40.756Z,9.43
2024-03-11T07:51:09.293Z,7.93
2024-03-11T07:53:36.591Z,8.50
2024-03-11T07:56:05.770Z,7.40
2024-03-11T07:58:36.137Z,7.87
2024-03-11T08:01:03.717Z,8.23
2024-03-11T08:03:31.089Z,8.07
2024-03-11T08:06:00.054Z,8.17
2024-03-11T08:08:27.576Z,7.07
2024-03-11T08:10:55.718Z,8.30
2024-03-11T08:13:22.888Z,7.90
2024-03-11T08:15:50.524Z,8.07
2024-03-11T08:18:17.922Z,7.60
2024-03-11T08:20:45.118Z,7.73
2024-03-11T08:23:11.969Z,7.47
2024-03-11T08:25:39.051Z,7.90
2024-03-11T08:28:06.236Z,6.70
2024-03-11T08:30:32.980Z,7.23
2024-03-11T08:33:01.287Z,7.07
2024-03-11T08:35:28.471Z,8.33
2024-03-11T08:37:55.168Z,7.93
2024-03-11T08:40:24.044Z,9.07
2024-03-11T08:42:51.934Z,10.13
2024-03-11T08:45:25.296Z,8.37
2024-03-11T08:47:53.216Z,9.30
2024-03-11T08:50:23.582Z,8.83
2024-03-11T08:52:51.498Z,8.70
2024-03-11T08:55:18.979Z,8.33
2024-03-11T08:57:47.034Z,8.27
2024-03-11T09:00:16.929Z,8.50
2024-03-11T09:02:47.597Z,9.20
2024-03-11T09:05:19.060Z,8.47
2024-03-11T09:07:47.667Z,8.87
2024-03-11T09:10:17.837Z,9.50
2024-03-11T09:12:48.454Z,7.83
2024-03-11T09:15:20.123Z,7.97
2024-03-11T09:17:52.818Z,7.27
2024-03-11T09:20:22.452Z,7.37
2024-03-11T09:22:51.209Z,7.77
2024-03-11T09:25:26.591Z,6.83
2024-03-11T09:27:55.019Z,5.83
2024-03-11T09:30:21.920Z,6.40
2024-03-11T09:32:51.115Z,6.07
2024-03-11T09:35:18.966Z,5.47
2024-03-11T09:37:46.337Z,6.47
2024-03-11T09:40:18.305Z,6.20
2024-03-11T09:42:49.452Z,7.20
2024-03-11T09:45:20.438Z,6.43
2024-03-11T09:47:58.234Z,5.97
2024-03-11T09:50:38.938Z,5.63
2024-03-11T09:53:20.583Z,6.03
2024-03-11T09:55:47.802Z,5.67
2024-03-11T09:58:17.737Z,7.03
2024-03-11T10:00:53.117Z,6.80
2024-03-11T10:03:23.449Z,7.03
2024-03-11T10:06:04.895Z,6.47
2024-03-11T10:08:37.927Z,7.33
2024-03-11T10:11:26.353Z,7.07
2024-03-11T10:13:54.259Z,6.67
2024-03-11T10:16:28.953Z,8.00
2024-03-11T10:19:23.359Z,5.30
2024-03-11T10:22:02.817Z,6.10
2024-03-11T10:24:31.853Z,6.23
2024-03-11T10:26:59.334Z,6.77
2024-03-11T10:29:35.061Z,6.93
2024-03-11T10:32:01.861Z,6.33
2024-03-11T10:34:30.414Z,5.33
2024-03-11T10:37:01.682Z,8.00
2024-03-11T10:39:38.952Z,6.83
2024-03-11T10:42:10.527Z,6.60
2024-03-11T10:44:41.590Z,8.83
2024-03-11T10:47:23.394Z,6.80
2024-03-11T10:49:52.636Z,6.13
2024-03-11T10:52:27.009Z,6.57
2024-03-11T10:55:11.463Z,6.33
2024-03-11T10:57:46.827Z,6.40
2024-03-11T11:00:21.756Z,6.90
2024-03-11T11:02:56.876Z,6.70
2024-03-11T11:05:34.821Z,7.27
2024-03-11T11:08:06.157Z,6.37
2024-03-11T11:10:37.845Z,6.60
2024-03-11T11:13:07.003Z,6.13
2024-03-11T11:15:38.154Z,5.97
2024-03-11T11:18:08.928Z,7.13
2024-03-11T11:20:44.982Z,6.90
2024-03-11T11:23:12.357Z,6.17
2024-03-11T11:25:43.730Z,5.93
2024-03-11T11:28:14.924Z,6.67
2024-03-11T11:30:43.636Z,6.93
2024-03-11T11:33:14.229Z,7.43
2024-03-11T11:35:45.306Z,6.27
2024-03-11T11:38:28.849Z,5.93
2024-03-11T11:40:55.654Z,5.77
2024-03-11T11:43:22.699Z,6.70
2024-03-11T11:45:55.087Z,7.47
2024-03-11T11:48:27.226Z,6.23
2024-03-11T11:51:02.533Z,6.57
2024-03-11T11:53:32.126Z,6.33
2024-03-11T11:55:59.733Z,6.63
2024-03-11T11:58:27.318Z,6.27
2024-03-11T12:01:05.924Z,5.90
2024-03-11T12:03:39.106Z,6.20
2024-03-11T12:06:21.161Z,6.57
2024-03-11T12:08:49.381Z,5.90
2024-03-11T12:11:19.370Z,5.27
2024-03-11T12:13:47.930Z,6.73
2024-03-11T12:16:21.911Z,6.47
2024-03-11T12:19:03.021Z,6.03
2024-03-11T12:21:30.293Z,6.57
2024-03-11T12:23:57.700Z,6.77
2024-03-11T12:26:32.004Z,6.53
2024-03-11T12:29:08.105Z,6.77
2024-03-11T12:31:38.828Z,7.50
2024-03-11T12:34:10.313Z,6.57
2024-03-11T12:36:42.712Z,7.17
2024-03-11T12:39:28.956Z,6.30
2024-03-11T12:41:58.581Z,6.67
2024-03-11T12:44:26.598Z,7.20
2024-03-11T12:46:55.048Z,7.40
2024-03-11T12:49:23.640Z,6.57
2024-03-11T12:52:11.293Z,6.67
2024-03-11T12:54:40.789Z,8.73
2024-03-11T12:57:18.546Z,6.70
2024-03-11T12:59:59.213Z,10.93
2024-03-11T13:02:25.855Z,7.40
2024-03-11T13:04:54.715Z,6.93
2024-03-11T13:07:24.811Z,7.37
2024-03-11T13:09:55.790Z,6.87
2024-03-11T13:12:22.711Z,6.53
2024-03-11T13:14:52.892Z,6.40
2024-03-11T13:17:20.814Z,6.20
2024-03-11T13:19:48.813Z,9.03
2024-03-11T13:22:19.050Z,8.67
2024-03-11T13:24:47.512Z,13.13
2024-03-11T13:27:15.091Z,7.03
2024-03-11T13:29:42.736Z,21.97
2024-03-11T13:32:09.773Z,8.63
2024-03-11T13:34:36.841Z,6.53
2024-03-11T13:37:05.374Z,7.83
2024-03-11T13:39:38.308Z,6.60
2024-03-11T13:42:15.040Z,7.03
2024-03-11T13:44:42.743Z,7.60
2024-03-11T13:47:10.522Z,6.40
2024-03-11T13:49:41.289Z,7.53
2024-03-11T13:52:10.164Z,7.10
2024-03-11T13:54:39.204Z,7.17
2024-03-11T13:57:09.479Z,8.47
2024-03-11T13:59:36.301Z,8.23
2024-03-11T14:02:03.929Z,7.27
2024-03-11T14:04:30.745Z,11.53
2024-03-11T14:06:57.483Z,9.37
2024-03-11T14:09:26.731Z,6.20
2024-03-11T14:11:54.024Z,6.10
2024-03-11T14:14:20.871Z,9.07
2024-03-11T14:16:48.158Z,9.13
2024-03-11T14:19:17.603Z,10.40
2024-03-11T14:21:45.755Z,7.17
2024-03-11T14:24:15.061Z,7.07
2024-03-11T14:26:42.927Z,6.70
2024-03-11T14:29:16.466Z,7.87
2024-03-11T14:31:47.079Z,7.73
2024-03-11T14:34:15.086Z,7.43
2024-03-11T14:36:45.152Z,8.50
2024-03-11T14:39:18.903Z,7.23
2024-03-11T14:41:47.899Z,7.23
2024-03-11T14:44:15.455Z,6.83
2024-03-11T14:46:48.951Z,6.00
2024-03-11T14:49:23.907Z,5.30
2024-03-11T14:51:54.337Z,5.60
2024-03-11T14:54:28.522Z,7.27
2024-03-11T14:56:56.827Z,7.40
2024-03-11T14:59:24.687Z,5.63
2024-03-11T15:01:55.395Z,7.10
2024-03-11T15:04:23.119Z,6.93
2024-03-11T15:06:49.851Z,6.80
2024-03-11T15:09:19.815Z,7.67
2024-03-11T15:11:49.929Z,6.63
2024-03-11T15:14:17.038Z,7.77
2024-03-11T15:16:46.995Z,10.13
2024-03-11T15:19:13.820Z,13.00
2024-03-11T15:21:40.884Z,10.80
2024-03-11T15:24:10.004Z,9.67
2024-03-11T15:26:39.492Z,8.00
2024-03-11T15:29:10.965Z,8.63
2024-03-11T15:31:37.858Z,8.30
2024-03-11T15:34:04.952Z,8.90
2024-03-11T15:36:36.869Z,7.67
2024-03-11T15:39:04.978Z,8.67
2024-03-11T15:41:31.771Z,9.27
2024-03-11T15:43:58.463Z,8.20
2024-03-11T15:46:29.797Z,8.80
2024-03-11T15:48:59.566Z,7.43
2024-03-11T15:51:27.049Z,8.93
2024-03-11T15:53:54.907Z,7.67
2024-03-11T15:56:22.504Z,8.20
2024-03-11T15:58:51.221Z,7.63
2024-03-11T16:01:23.696Z,9.40
2024-03-11T16:03:52.699Z,8.50
2024-03-11T16:06:20.375Z,8.77
2024-03-11T16:08:47.433Z,8.07
2024-03-11T16:11:14.963Z,9.53
2024-03-11T16:13:41.807Z,9.33
2024-03-11T16:16:09.875Z,9.47
2024-03-11T16:18:37.156Z,8.87
2024-03-11T16:21:04.349Z,10.00
2024-03-11T16:23:32.858Z,8.77
2024-03-11T16:26:02.355Z,9.70
2024-03-11T16:28:29.712Z,8.57
2024-03-11T16:30:56.317Z,7.67
2024-03-11T16:33:25.818Z,8.27
2024-03-11T16:35:52.501Z,8.50
2024-03-11T16:38:19.653Z,8.90
2024-03-11T16:40:47.038Z,7.67
2024-03-11T16:43:17.340Z,8.97
2024-03-11T16:45:49.351Z,17.37
2024-03-11T16:48:17.994Z,14.60
2024-03-11T16:50:49.509Z,30.80
2024-03-11T16:53:22.290Z,17.80
2024-03-11T16:55:52.047Z,19.87
2024-03-11T16:58:18.900Z,18.23
2024-03-11T17:00:50.065Z,14.53
2024-03-11T17:03:17.847Z,11.83
2024-03-11T17:05:45.608Z,46.50
2024-03-11T17:08:16.143Z,22.93
2024-03-11T17:10:46.409Z,14.37
2024-03-11T17:13:16.108Z,13.30
2024-03-11T17:15:43.747Z,14.73
2024-03-11T17:18:13.351Z,14.13
2024-03-11T17:20:46.096Z,10.23
2024-03-11T17:23:17.508Z,13.47
2024-03-11T17:25:46.235Z,10.80
2024-03-11T17:28:17.380Z,11.90
2024-03-11T17:30:47.335Z,10.47
2024-03-11T17:33:19.384Z,15.00
2024-03-11T17:35:50.612Z,12.93
2024-03-11T17:38:20.254Z,12.97
2024-03-11T17:40:50.868Z,14.17
2024-03-11T17:43:20.152Z,20.03
2024-03-11T17:45:48.539Z,27.03
2024-03-11T17:48:17.584Z,18.60
2024-03-11T17:50:45.050Z,31.27
2024-03-11T17:53:13.438Z,21.87
2024-03-11T17:55:41.944Z,14.73
2024-03-11T17:58:12.101Z,15.07
2024-03-11T18:00:41.260Z,11.80
2024-03-11T18:03:10.858Z,13.07
2024-03-11T18:05:38.245Z,14.70
2024-03-11T18:08:08.110Z,13.70
2024-03-11T18:10:37.913Z,14.80
2024-03-11T18:13:12.480Z,13.57
2024-03-11T18:15:42.960Z,16.60
2024-03-11T18:18:14.585Z,14.90
2024-03-11T18:20:42.427Z,17.50
2024-03-11T18:23:14.839Z,14.17
2024-03-11T18:25:43.305Z,13.33
2024-03-11T18:28:10.196Z,12.60
2024-03-11T18:30:37.382Z,14.73
2024-03-11T18:33:06.695Z,16.20
2024-03-11T18:35:36.928Z,14.67
2024-03-11T18:38:07.850Z,14.27
2024-03-11T18:40:35.745Z,17.37
2024-03-11T18:43:05.806Z,14.43
2024-03-11T18:45:33.945Z,12.57
2024-03-11T18:48:02.112Z,13.47
2024-03-11T18:50:29.572Z,13.07
2024-03-11T18:53:00.674Z,13.13
2024-03-11T18:55:31.250Z,12.07
2024-03-11T18:58:00.108Z,12.20
2024-03-11T19:00:28.270Z,12.03
2024-03-11T19:03:01.192Z,13.03
2024-03-11T19:05:29.073Z,12.70
2024-03-11T19:07:56.881Z,12.20
2024-03-11T19:10:26.956Z,13.13
2024-03-11T19:12:54.935Z,13.80
2024-03-11T19:15:25.567Z,14.07
2024-03-11T19:17:52.851Z,13.47
2024-03-11T19:20:24.405Z,16.30
2024-03-11T19:22:58.971Z,16.77
2024-03-11T19:25:29.464Z,15.93
2024-03-11T19:27:59.064Z,14.50
2024-03-11T19:30:29.524Z,15.60
2024-03-11T19:32:58.142Z,13.80
2024-03-11T19:35:25.044Z,15.87
2024-03-11T19:38:15.243Z,16.60
2024-03-11T19:40:45.119Z,13.30
2024-03-11T19:43:30.555Z,14.37
2024-03-11T19:46:27.678Z,13.70
2024-03-11T19:49:31.592Z,12.60
2024-03-11T19:52:02.195Z,13.53
2024-03-11T19:55:03.069Z,14.03
2024-03-11T19:57:54.475Z,12.83
2024-03-11T20:01:13.063Z,13.57
2024-03-11T20:03:54.466Z,13.27
2024-03-11T20:06:45.804Z,12.10
2024-03-11T20:09:49.936Z,13.60
2024-03-11T20:12:41.357Z,12.70
2024-03-11T20:15:29.458Z,13.33
2024-03-11T20:18:22.509Z,14.30
2024-03-11T20:21:27.148Z,14.13
2024-03-11T20:24:07.701Z,14.57
2024-03-11T20:26:43.501Z,14.10
2024-03-11T20:29:26.076Z,12.80
2024-03-11T20:32:00.163Z,13.37
2024-03-11T20:34:26.724Z,15.07
2024-03-11T20:36:53.476Z,13.07
2024-03-11T20:39:20.207Z,13.73
2024-03-11T20:41:47.196Z,14.50
2024-03-11T20:44:13.820Z,13.80
2024-03-11T20:46:40.549Z,13.67
2024-03-11T20:49:09.319Z,14.00
2024-03-11T20:51:40.714Z,24.47
2024-03-11T20:54:07.832Z,15.00
2024-03-11T20:56:34.400Z,22.13
2024-03-11T20:59:01.084Z,17.40
2024-03-11T21:01:29.670Z,16.37
2024-03-11T21:03:57.620Z,18.20
2024-03-11T21:06:24.859Z,14.27
2024-03-11T21:08:53.749Z,12.90
2024-03-11T21:11:21.583Z,12.33
2024-03-11T21:13:48.311Z,11.20
2024-03-11T21:16:19.490Z,11.50
2024-03-11T21:18:48.349Z,10.53
2024-03-11T21:21:23.930Z,12.33
2024-03-11T21:24:19.633Z,11.43
2024-03-11T21:27:11.929Z,9.43
2024-03-11T21:29:38.760Z,10.27
2024-03-11T21:32:05.658Z,9.73
2024-03-11T21:34:32.275Z,9.57
2024-03-11T21:36:58.967Z,10.43
2024-03-11T21:39:28.144Z,9.93
2024-03-11T21:41:54.831Z,8.33
2024-03-11T21:44:21.886Z,8.03
2024-03-11T21:46:49.106Z,8.53
2024-03-11T21:49:15.732Z,9.53
2024-03-11T21:51:42.465Z,8.47
2024-03-11T21:54:10.260Z,9.40
2024-03-11T21:56:36.896Z,9.70
2024-03-11T21:59:04.246Z,9.37
2024-03-11T22:01:30.872Z,7.77
2024-03-11T22:03:57.571Z,8.67
2024-03-11T22:06:24.373Z,7.57
2024-03-11T22:08:53.763Z,7.93
2024-03-11T22:11:20.457Z,9.63
2024-03-11T22:13:47.065Z,7.70
2024-03-11T22:16:13.932Z,9.17
2024-03-11T22:18:40.666Z,9.00
2024-03-11T22:21:07.456Z,8.13
2024-03-11T22:23:34.585Z,8.40
2024-03-11T22:26:01.322Z,8.57
2024-03-11T22:28:27.935Z,8.70
2024-03-11T22:30:54.518Z,8.83
2024-03-11T22:33:21.280Z,7.47
2024-03-11T22:35:48.008Z,7.07
2024-03-11T22:38:14.595Z,8.13
2024-03-11T22:40:41.313Z,8.10
2024-03-11T22:43:07.924Z,7.07
2024-03-11T22:45:34.653Z,7.97
2024-03-11T22:48:02.495Z,6.63
2024-03-11T22:50:29.222Z,7.90
2024-03-11T22:52:55.881Z,9.30
2024-03-11T22:55:22.479Z,7.53
2024-03-11T22:57:49.102Z,6.60
2024-03-11T23:00:34.992Z,6.70
2024-03-11T23:03:01.768Z,7.07
2024-03-11T23:05:28.416Z,8.40
2024-03-11T23:07:54.986Z,7.20
2024-03-11T23:10:27.807Z,6.90
2024-03-11T23:12:55.828Z,6.87
2024-03-11T23:15:23.845Z,6.87
2024-03-11T23:17:51.763Z,6.90
2024-03-11T23:20:19.347Z,4.50
2024-03-11T23:22:46.776Z,3.90
2024-03-11T23:25:13.775Z,2.40
2024-03-11T23:27:40.442Z,2.60
2024-03-11T23:30:14.445Z,1.80
2024-03-11T23:32:44.004Z,1.30
2024-03-11T23:35:10.658Z,1.00
2024-03-11T23:37:38.314Z,1.07
2024-03-11T23:40:20.523Z,1.10
2024-03-11T23:42:51.458Z,0.97
2024-03-11T23:45:18.594Z,0.50
2024-03-11T23:47:46.291Z,0.63
2024-03-11T23:50:13.849Z,0.50
2024-03-11T23:52:43.518Z,0.70
2024-03-11T23:55:14.772Z,0.80
2024-03-11T23:57:41.588Z,0.80
